Odds, Texas
Current Conditions -  °F | °C
As of 6:15 AM on Thursday 18 Dec 2014 (Local Time) from KLXY Reporting Station
Haze Haze  
Wind Chill: 45°   Ceiling: 200
Heat Index: 45°   Visibility: 0.75mi
Dew Point: 45°   Wind: 3mph
Humidity: 99%   Direction: 50°NE
Pressure: 30.1"   Gusts: NA
Location:  31.4027°N, 96.4988°W
Report Text: KLXY 181215Z AUTO 05003KT 3/4SM BR OVC002 07/07 A3010 RMK AO2 T00730071
Loading
Personal Weather Stations






























Interactive Weather Map New forecast layout! Learn more

10-Day Weather Forecast

Advertisements
Track Severe Weather on mobile